weather station
Area: 11014 km2
The highest point: Tok (865 m.s.l.)
Total stations: 50
Stations online: 44
Stations offline: 6
Current weather
13°C

Meteorological map - weather stations in Středočeský

. The meteorological maps show weather information from WARIO weather stations

Weather stations Středočeský

 UpdatesNameStatusTemperatureHumidityWind speedWind direction
21.10.2017 12:32Kolín16.6 °C73.1 %1.2 m/s NE
21.10.2017 12:33Bechov11.8 °C86.2 %1.7 m/s W
21.10.2017 12:32Bořanovice11.8 °C84.0 %0.8 m/s NW
27.7.2017 23:59Kutná Hora15.5 °C99.0 %0.0 m/s S
21.10.2017 12:32Králův Dvůr14.4 °C68.9 %2.2 m/s W
21.10.2017 12:32Černé Voděrady12.9 °C74.3 %2.0 m/s NW
21.10.2017 12:32Chotětov11.8 °C86.0 %1.2 m/s SW
21.10.2017 12:32Opolany13.7 °C71.3 %0.0 m/s S
21.10.2017 12:32Hostín u Vojkovic11.7 °C90.1 %0.0 m/s E
21.10.2017 12:32Sedlčany15.9 °C69.9 %1.5 m/s W
13.9.2017 23:05Hradištko I15.2 °C84.4 %2.7 m/s S
21.10.2017 12:32Hřebeč14.3 °C66.5 %1.6 m/s N
20.8.2017 12:19Kladno19.0 °C47.8 %0.0 m/s S
21.10.2017 12:32Mělník13.6 °C74.5 %0.1 m/s NW
21.10.2017 12:32Jiřetice15.0 °C81.7 %3.3 m/s W
21.10.2017 12:32Kněžmost15.1 °C83.6 %0.0 m/s N
21.10.2017 12:32Kojetice13.4 °C83.1 %0.0 m/s NE
21.10.2017 12:32Křinec12.8 °C79.1 %1.3 m/s NW
21.10.2017 12:33Květnice °C %0.8 m/s N
21.10.2017 12:32Ledečky10.5 °C84.0 %1.4 m/s N
21.10.2017 12:32Libeř16.6 °C63.5 %0.7 m/s W
21.10.2017 12:32Sazená10.5 °C99.4 %2.1 m/s E
21.10.2017 12:32Malý Újezd11.8 °C88.5 %0.7 m/s S
21.10.2017 12:32Zdice15.7 °C62.6 %1.6 m/s SW
14.9.2017 18:18Červený Újezd8.3 °C85.9 %3.8 m/s SW
21.10.2017 12:32Mělník14.3 °C68.6 %0.9 m/s W
21.10.2017 12:32Řevnice17.5 °C59.3 %0.0 m/s E
21.10.2017 12:32Olešná13.0 °C80.6 %2.8 m/s W
21.10.2017 12:32Srby12.1 °C77.4 %1.6 m/s SW
21.10.2017 12:32Kralupy nad Vltavou13.3 °C80.3 %0.0 m/s NW
21.10.2017 12:32Mrač15.2 °C74.7 %0.9 m/s NW
21.10.2017 12:32Dolní Jirčany13.1 °C81.8 %2.4 m/s SW
21.10.2017 12:32Mladá Boleslav11.0 °C100.0 %0.0 m/s SW
21.10.2017 12:32Bratčice13.8 °C77.9 %1.1 m/s N
21.10.2017 12:32Mratín13.5 °C100.0 %0.0 m/s N
21.10.2017 12:32Mšecké Žehrovice11.5 °C71.2 %1.4 m/s SW
21.10.2017 12:32Odolena voda13.6 °C79.3 %0.4 m/s N
21.10.2017 12:32Oseček14.3 °C100.0 %0.6 m/s N
21.10.2017 12:32Pátek12.5 °C85.5 %0.9 m/s NE
21.10.2017 12:32Radlice14.4 °C69.9 %1.2 m/s N
21.10.2017 12:32Semice11.9 °C90.0 %0.8 m/s W
18.10.2017 15:20Kosmonosy13.0 °C92.0 %1.3 m/s N
21.10.2017 12:32Srby12.3 °C74.8 %1.1 m/s W
18.10.2017 11:55Vestec10.2 °C92.5 %0.0 m/s NW
21.10.2017 12:32Vidice16.5 °C92.3 %0.1 m/s NW
21.10.2017 12:32Nebřich15.7 °C75.6 %1.4 m/s W
21.10.2017 12:32Vrbčany12.6 °C84.5 %0.6 m/s NW
21.10.2017 12:32Všetaty11.7 °C84.2 %0.0 m/s N
21.10.2017 12:32Chlístovice14.6 °C68.5 %1.0 m/s NW
21.10.2017 12:32Zibohlavy12.2 °C96.8 %1.5 m/s E
Email notifications
Enter your email address to subscribe to notifications about news at warioweather.com. Your email address will not be used for any purpose other than sending these emails and will not be provided to any third party. The subscription can be ended at any time.
All data are only indicative. The portal administrator has no responsibility for potentially incorrect data and related consequences. Publishing or further sharing of content from www.warioweather.com is only allowed with written consent from WANET s.r.o.